Hauptseite
METAR-TAF:

METAR-TAF

Flughäfen :

Flughafen Straßburg

Straßburg, Frankreich

Breite: 48-33N, Länge: 007-38E, Höhe: 153 m

Beobachtung

Neuester Wetterbericht von vor 32 Minuten, um 14:30 UTC
Wind 6 kt aus Nord/Nordost, variierte zwischen Nord/Nordwest und Ost/Nordost
Temperatur 10°C
Luftfeuchtigkeit 46%
Luftdruck 1030 hPa
Sichtweite 10 km oder mehr
Leicht bewölkt in der Höhe von 1200 ft
Durchbrochene Bewölkung in der Höhe von 5200 ft

METAR: LFST 261430Z AUTO 02006KT 330V060 9999 FEW012 BKN052 10/M01 Q1030 NOSIG

Zeit: 16:02 (15:02 UTC)

Prognose

Neuester Wetterbericht von vor 3 Stunden und 59 Minuten, um 11:03 UTC
Gültige Prognose vom 26 um 12 UTC bis 27 um 12 UTC
Wind 7 kt aus Nord
Sichtweite 10 km oder mehr
Leicht bewölkt in der Höhe von 4000 ft
Aufgelockert bewölkt in der Höhe von 5500 ft

TAF: LFST 261103Z 2612/2712 01007KT 9999 FEW040 SCT055

Wetterbeobachtungen und Prognosen von mehr als 4000 Flughäfen (METAR und TAF Bericht).

Die verfügbaren Stationen werden durch gelbe und rote Markierungen auf der Karte dargestellt.

Führen Sie die Maus auf sie, um den Namen der Station zu sehen.

Darauf klicken, um die Beobachtung von Wetterbeobachtungen und Prognosen zu sehen.

Um die Karte zu ändern : klicken Sie auf den grünen Tasten mit einem schwarzen Kreuz Zum Vergrößern, auf den grünen Button mit einem Gedankenstrich zu verkleinern, oder auf die grünen Pfeile für benachbarte Karten.


METAR-TAF: